Time,TemperatureF,DewpointF,PressureIn,WindDirection,WindDirectionDegrees,WindSpeedMPH,WindSpeedGustMPH,Humidity,HourlyPrecipIn,Conditions,Clouds,dailyrainin,SolarRadiationWatts/m^2,SoftwareType,DateUTC
2014-02-13 08:39:00,77.3,72.0,30.01,SE,125,2.0,8.0,83,0.00,,,0.00,174,weatherlink.com 1.10,2014-02-13 12:39:00,
2014-02-13 09:15:00,79.1,72.0,30.01,SE,135,4.0,10.0,78,0.00,,,0.00,236,weatherlink.com 1.10,2014-02-13 13:15:00,
2014-02-13 09:24:00,79.5,72.0,30.01,SE,130,3.0,9.0,77,0.00,,,0.00,237,weatherlink.com 1.10,2014-02-13 13:24:00,
2014-02-13 09:39:00,80.5,72.0,30.02,SE,128,2.0,7.0,75,0.00,,,0.00,272,weatherlink.com 1.10,2014-02-13 13:39:00,
2014-02-13 09:54:00,81.2,72.0,30.02,ESE,121,2.0,11.0,74,0.00,,,0.00,297,weatherlink.com 1.10,2014-02-13 13:54:00,
2014-02-13 10:09:00,81.7,72.0,30.02,ESE,106,2.0,9.0,72,0.00,,,0.00,431,weatherlink.com 1.10,2014-02-13 14:09:00,
2014-02-13 10:24:00,82.5,73.0,30.02,East,86,5.0,8.0,72,0.00,,,0.00,422,weatherlink.com 1.10,2014-02-13 14:24:00,
2014-02-13 10:48:00,83.7,72.0,30.02,East,82,5.0,8.0,68,0.00,,,0.00,459,weatherlink.com 1.10,2014-02-13 14:48:00,
2014-02-13 10:54:00,84.3,73.0,30.02,East,80,1.0,7.0,68,0.00,,,0.00,297,weatherlink.com 1.10,2014-02-13 14:54:00,
2014-02-13 11:24:00,87.4,69.0,30.00,SSW,211,7.0,14.0,55,0.00,,,0.00,183,weatherlink.com 1.10,2014-02-13 15:24:00,
2014-02-13 12:10:00,86.5,72.0,29.99,East,100,7.0,10.0,62,0.00,,,0.00,271,weatherlink.com 1.10,2014-02-13 16:10:00,
2014-02-13 12:25:00,84.9,72.0,29.98,ENE,74,5.0,13.0,65,0.00,,,0.00,364,weatherlink.com 1.10,2014-02-13 16:25:00,
2014-02-13 12:40:00,86.9,72.0,29.98,ESE,117,5.0,11.0,62,0.00,,,0.00,1027,weatherlink.com 1.10,2014-02-13 16:40:00,
2014-02-13 13:10:00,87.4,73.0,29.97,East,85,6.0,14.0,63,0.00,,,0.00,478,weatherlink.com 1.10,2014-02-13 17:10:00,
2014-02-13 13:25:00,85.2,74.0,29.96,NE,47,5.0,11.0,68,0.00,,,0.00,605,weatherlink.com 1.10,2014-02-13 17:25:00,
2014-02-13 13:55:00,86.9,74.0,29.94,NE,34,2.0,11.0,65,0.00,,,0.00,733,weatherlink.com 1.10,2014-02-13 17:55:00,
2014-02-13 14:25:00,86.4,70.0,29.93,SE,128,10.0,16.0,58,0.00,,,0.00,183,weatherlink.com 1.10,2014-02-13 18:25:00,
2014-02-13 14:40:00,87.2,70.0,29.92,South,178,7.0,15.0,57,0.00,,,0.00,851,weatherlink.com 1.10,2014-02-13 18:40:00,
2014-02-13 15:10:00,88.0,70.0,29.92,SE,137,6.0,12.0,56,0.00,,,0.00,510,weatherlink.com 1.10,2014-02-13 19:10:00,
2014-02-13 15:25:00,86.7,71.0,29.91,SE,133,7.0,16.0,60,0.00,,,0.00,504,weatherlink.com 1.10,2014-02-13 19:25:00,
2014-02-13 15:55:00,85.0,71.0,29.91,SE,128,7.0,14.0,63,0.00,,,0.00,279,weatherlink.com 1.10,2014-02-13 19:55:00,
2014-02-13 16:10:00,85.1,70.0,29.91,SE,138,6.0,18.0,61,0.00,,,0.00,499,weatherlink.com 1.10,2014-02-13 20:10:00,
2014-02-13 16:25:00,85.2,69.0,29.92,SE,144,1.0,18.0,58,0.00,,,0.00,338,weatherlink.com 1.10,2014-02-13 20:25:00,
2014-02-13 16:40:00,85.8,69.0,29.92,SE,128,8.0,15.0,58,0.00,,,0.00,288,weatherlink.com 1.10,2014-02-13 20:40:00,
2014-02-13 16:55:00,85.8,70.0,29.92,SSE,155,5.0,14.0,60,0.00,,,0.00,209,weatherlink.com 1.10,2014-02-13 20:55:00,
2014-02-13 17:10:00,84.0,70.0,29.91,SSE,157,1.0,13.0,63,0.00,,,0.00,137,weatherlink.com 1.10,2014-02-13 21:10:00,
2014-02-13 17:25:00,83.8,70.0,29.92,South,173,8.0,9.0,64,0.00,,,0.00,81,weatherlink.com 1.10,2014-02-13 21:25:00,
2014-02-13 17:40:00,83.1,71.0,29.92,SSE,148,9.0,18.0,66,0.00,,,0.00,42,weatherlink.com 1.10,2014-02-13 21:40:00,
2014-02-13 17:55:00,82.8,70.0,29.93,SE,138,8.0,16.0,65,0.00,,,0.00,32,weatherlink.com 1.10,2014-02-13 21:55:00,
2014-02-13 18:11:00,82.1,71.0,29.93,ESE,116,4.0,15.0,68,0.00,,,0.00,14,weatherlink.com 1.10,2014-02-13 22:11:00,
2014-02-13 18:25:00,81.5,71.0,29.94,SE,142,4.0,7.0,70,0.00,,,0.00,0,weatherlink.com 1.10,2014-02-13 22:25:00,
2014-02-13 18:40:00,80.9,71.0,29.94,SSE,150,5.0,7.0,71,0.00,,,0.00,0,weatherlink.com 1.10,2014-02-13 22:40:00,
2014-02-13 18:55:00,80.4,71.0,29.94,SE,132,5.0,8.0,74,0.00,,,0.00,0,weatherlink.com 1.10,2014-02-13 22:55:00,
2014-02-13 19:10:00,80.0,71.0,29.95,ESE,119,7.0,10.0,75,0.00,,,0.00,0,weatherlink.com 1.10,2014-02-13 23:10:00,
2014-02-13 19:25:00,79.6,71.0,29.95,East,80,0.0,10.0,75,0.00,,,0.00,0,weatherlink.com 1.10,2014-02-13 23:25:00,
2014-02-13 19:40:00,79.5,72.0,29.95,SE,130,4.0,10.0,77,0.00,,,0.00,0,weatherlink.com 1.10,2014-02-13 23:40:00,
2014-02-13 19:55:00,79.3,72.0,29.96,SE,131,3.0,8.0,78,0.00,,,0.00,0,weatherlink.com 1.10,2014-02-13 23:55:00,
2014-02-13 20:10:00,79.0,72.0,29.97,ESE,117,2.0,8.0,78,0.00,,,0.00,0,weatherlink.com 1.10,2014-02-14 00:10:00,
2014-02-13 20:25:00,78.8,72.0,29.98,SE,124,4.0,7.0,79,0.00,,,0.00,0,weatherlink.com 1.10,2014-02-14 00:25:00,
2014-02-13 20:40:00,78.6,72.0,29.98,East,101,2.0,7.0,79,0.00,,,0.00,0,weatherlink.com 1.10,2014-02-14 00:40:00,
2014-02-13 20:55:00,78.4,71.0,29.99,East,82,1.0,4.0,79,0.00,,,0.00,0,weatherlink.com 1.10,2014-02-14 00:55:00,
2014-02-13 21:10:00,78.3,71.0,29.99,East,82,0.0,2.0,79,0.00,,,0.00,0,weatherlink.com 1.10,2014-02-14 01:10:00,
2014-02-13 21:25:00,78.5,72.0,30.00,East,84,0.0,4.0,80,0.00,,,0.00,0,weatherlink.com 1.10,2014-02-14 01:25:00,
2014-02-13 21:40:00,78.4,72.0,30.00,SE,126,3.0,7.0,81,0.00,,,0.00,0,weatherlink.com 1.10,2014-02-14 01:40:00,
2014-02-13 21:55:00,78.0,72.0,30.00,SE,146,2.0,6.0,82,0.00,,,0.00,0,weatherlink.com 1.10,2014-02-14 01:55:00,
2014-02-13 22:10:00,77.6,72.0,30.00,SE,130,3.0,8.0,83,0.00,,,0.00,0,weatherlink.com 1.10,2014-02-14 02:10:00,
2014-02-13 22:25:00,77.4,72.0,30.00,SE,128,0.0,7.0,84,0.00,,,0.00,0,weatherlink.com 1.10,2014-02-14 02:25:00,
2014-02-13 22:40:00,77.2,72.0,30.01,SE,128,0.0,3.0,84,0.00,,,0.00,0,weatherlink.com 1.10,2014-02-14 02:40:00,
2014-02-13 22:55:00,77.0,72.0,30.00,SE,128,2.0,4.0,84,0.00,,,0.00,0,weatherlink.com 1.10,2014-02-14 02:55:00,
2014-02-13 23:10:00,76.9,72.0,30.00,SE,128,0.0,3.0,84,0.00,,,0.00,0,weatherlink.com 1.10,2014-02-14 03:10:00,
2014-02-13 23:25:00,76.8,72.0,30.00,SE,128,0.0,4.0,85,0.00,,,0.00,0,weatherlink.com 1.10,2014-02-14 03:25:00,
2014-02-13 23:40:00,76.4,72.0,30.00,SE,128,0.0,5.0,85,0.00,,,0.00,0,weatherlink.com 1.10,2014-02-14 03:40:00,
2014-02-13 23:55:00,76.3,72.0,30.00,SE,128,0.0,0.0,85,0.00,,,0.00,0,weatherlink.com 1.10,2014-02-14 03:55:00,